sensor_id;sensor_type;location;lat;lon;timestamp;temperature;humidity
52943;DHT22;38809;53.300;6.614;2023-06-22T00:01:05;17.40;99.90
52943;DHT22;38809;53.300;6.614;2023-06-22T00:03:31;17.40;99.90
52943;DHT22;38809;53.300;6.614;2023-06-22T00:05:57;17.50;99.90
52943;DHT22;38809;53.300;6.614;2023-06-22T00:08:22;17.40;99.90
52943;DHT22;38809;53.300;6.614;2023-06-22T00:10:48;17.40;99.90
52943;DHT22;38809;53.300;6.614;2023-06-22T00:13:14;17.30;99.90
52943;DHT22;38809;53.300;6.614;2023-06-22T00:15:40;17.10;99.90
52943;DHT22;38809;53.300;6.614;2023-06-22T00:18:06;17.30;99.90
52943;DHT22;38809;53.300;6.614;2023-06-22T00:20:32;17.30;99.90
52943;DHT22;38809;53.300;6.614;2023-06-22T00:22:58;16.90;99.90
52943;DHT22;38809;53.300;6.614;2023-06-22T00:25:24;16.70;99.90
52943;DHT22;38809;53.300;6.614;2023-06-22T00:27:49;16.60;99.90
52943;DHT22;38809;53.300;6.614;2023-06-22T00:30:15;16.60;99.90
52943;DHT22;38809;53.300;6.614;2023-06-22T00:32:42;16.70;99.90
52943;DHT22;38809;53.300;6.614;2023-06-22T00:35:07;16.60;99.90
52943;DHT22;38809;53.300;6.614;2023-06-22T00:37:34;16.50;99.90
52943;DHT22;38809;53.300;6.614;2023-06-22T00:40:01;16.60;99.90
52943;DHT22;38809;53.300;6.614;2023-06-22T00:42:27;16.50;99.90
52943;DHT22;38809;53.300;6.614;2023-06-22T00:44:52;16.30;99.90
52943;DHT22;38809;53.300;6.614;2023-06-22T00:47:18;16.10;99.90
52943;DHT22;38809;53.300;6.614;2023-06-22T00:49:44;15.80;99.90
52943;DHT22;38809;53.300;6.614;2023-06-22T00:52:12;15.60;99.90
52943;DHT22;38809;53.300;6.614;2023-06-22T00:54:42;15.50;99.90
52943;DHT22;38809;53.300;6.614;2023-06-22T00:57:13;15.70;99.90
52943;DHT22;38809;53.300;6.614;2023-06-22T00:59:44;15.60;99.90
52943;DHT22;38809;53.300;6.614;2023-06-22T01:02:10;15.60;99.90
52943;DHT22;38809;53.300;6.614;2023-06-22T01:04:37;15.70;99.90
52943;DHT22;38809;53.300;6.614;2023-06-22T01:09:59;15.80;99.90
52943;DHT22;38809;53.300;6.614;2023-06-22T01:12:26;15.90;99.90
52943;DHT22;38809;53.300;6.614;2023-06-22T01:14:59;16.10;99.90
52943;DHT22;38809;53.300;6.614;2023-06-22T01:17:26;16.20;99.90
52943;DHT22;38809;53.300;6.614;2023-06-22T01:19:54;16.30;99.90
52943;DHT22;38809;53.300;6.614;2023-06-22T01:22:23;16.60;99.90
52943;DHT22;38809;53.300;6.614;2023-06-22T01:30:11;16.80;99.90
52943;DHT22;38809;53.300;6.614;2023-06-22T01:32:37;16.80;99.90
52943;DHT22;38809;53.300;6.614;2023-06-22T01:35:04;16.60;99.90
52943;DHT22;38809;53.300;6.614;2023-06-22T01:37:30;16.10;99.90
52943;DHT22;38809;53.300;6.614;2023-06-22T01:39:57;16.00;99.90
52943;DHT22;38809;53.300;6.614;2023-06-22T01:42:24;16.10;99.90
52943;DHT22;38809;53.300;6.614;2023-06-22T01:44:50;16.20;99.90
52943;DHT22;38809;53.300;6.614;2023-06-22T01:47:16;16.30;99.90
52943;DHT22;38809;53.300;6.614;2023-06-22T01:49:42;16.40;99.90
52943;DHT22;38809;53.300;6.614;2023-06-22T01:52:07;16.40;99.90
52943;DHT22;38809;53.300;6.614;2023-06-22T01:54:33;16.30;99.90
52943;DHT22;38809;53.300;6.614;2023-06-22T01:56:58;16.20;99.90
52943;DHT22;38809;53.300;6.614;2023-06-22T02:02:09;16.10;99.90
52943;DHT22;38809;53.300;6.614;2023-06-22T02:04:39;16.00;99.90
52943;DHT22;38809;53.300;6.614;2023-06-22T02:07:09;16.00;99.90
52943;DHT22;38809;53.300;6.614;2023-06-22T02:09:35;15.90;99.90
52943;DHT22;38809;53.300;6.614;2023-06-22T02:12:03;15.80;99.90
52943;DHT22;38809;53.300;6.614;2023-06-22T02:14:30;15.50;99.90
52943;DHT22;38809;53.300;6.614;2023-06-22T02:16:56;15.50;99.90
52943;DHT22;38809;53.300;6.614;2023-06-22T02:19:24;15.40;99.90
52943;DHT22;38809;53.300;6.614;2023-06-22T02:21:50;15.50;99.90
52943;DHT22;38809;53.300;6.614;2023-06-22T02:24:15;15.50;99.90
52943;DHT22;38809;53.300;6.614;2023-06-22T02:26:42;15.50;99.90
52943;DHT22;38809;53.300;6.614;2023-06-22T02:29:08;15.60;99.90
52943;DHT22;38809;53.300;6.614;2023-06-22T02:31:33;15.60;99.90
52943;DHT22;38809;53.300;6.614;2023-06-22T02:33:59;15.50;99.90
52943;DHT22;38809;53.300;6.614;2023-06-22T02:36:25;15.70;99.90
52943;DHT22;38809;53.300;6.614;2023-06-22T02:38:52;15.60;99.90
52943;DHT22;38809;53.300;6.614;2023-06-22T02:41:17;15.50;99.90
52943;DHT22;38809;53.300;6.614;2023-06-22T02:43:46;15.40;99.90
52943;DHT22;38809;53.300;6.614;2023-06-22T02:46:12;15.50;99.90
52943;DHT22;38809;53.300;6.614;2023-06-22T02:48:42;15.50;99.90
52943;DHT22;38809;53.300;6.614;2023-06-22T02:51:07;15.60;99.90
52943;DHT22;38809;53.300;6.614;2023-06-22T02:53:33;15.70;99.90
52943;DHT22;38809;53.300;6.614;2023-06-22T02:56:00;15.80;99.90
52943;DHT22;38809;53.300;6.614;2023-06-22T02:58:26;15.80;99.90
52943;DHT22;38809;53.300;6.614;2023-06-22T03:00:52;16.00;99.90
52943;DHT22;38809;53.300;6.614;2023-06-22T03:03:18;14.60;99.90
52943;DHT22;38809;53.300;6.614;2023-06-22T03:05:44;16.10;99.90
52943;DHT22;38809;53.300;6.614;2023-06-22T03:08:09;15.90;99.90
52943;DHT22;38809;53.300;6.614;2023-06-22T03:10:35;15.90;99.90
52943;DHT22;38809;53.300;6.614;2023-06-22T03:13:01;15.90;99.90
52943;DHT22;38809;53.300;6.614;2023-06-22T03:15:26;15.90;99.90
52943;DHT22;38809;53.300;6.614;2023-06-22T03:17:54;15.90;99.90
52943;DHT22;38809;53.300;6.614;2023-06-22T03:20:20;15.80;99.90
52943;DHT22;38809;53.300;6.614;2023-06-22T03:22:46;15.40;99.90
52943;DHT22;38809;53.300;6.614;2023-06-22T03:25:11;15.20;99.90
52943;DHT22;38809;53.300;6.614;2023-06-22T03:27:40;15.10;99.90
52943;DHT22;38809;53.300;6.614;2023-06-22T03:30:07;15.20;99.90
52943;DHT22;38809;53.300;6.614;2023-06-22T03:32:33;15.40;99.90
52943;DHT22;38809;53.300;6.614;2023-06-22T03:34:58;15.40;99.90
52943;DHT22;38809;53.300;6.614;2023-06-22T03:37:27;15.20;99.90
52943;DHT22;38809;53.300;6.614;2023-06-22T03:39:53;15.30;99.90
52943;DHT22;38809;53.300;6.614;2023-06-22T03:42:18;15.40;99.90
52943;DHT22;38809;53.300;6.614;2023-06-22T03:44:44;15.60;99.90
52943;DHT22;38809;53.300;6.614;2023-06-22T03:47:09;15.70;99.90
52943;DHT22;38809;53.300;6.614;2023-06-22T03:49:35;15.60;99.90
52943;DHT22;38809;53.300;6.614;2023-06-22T03:52:01;15.60;99.90
52943;DHT22;38809;53.300;6.614;2023-06-22T03:54:28;15.60;99.90
52943;DHT22;38809;53.300;6.614;2023-06-22T03:56:54;15.70;99.90
52943;DHT22;38809;53.300;6.614;2023-06-22T03:59:19;15.60;99.90
52943;DHT22;38809;53.300;6.614;2023-06-22T04:01:45;15.50;99.90
52943;DHT22;38809;53.300;6.614;2023-06-22T04:04:11;15.70;99.90
52943;DHT22;38809;53.300;6.614;2023-06-22T04:06:38;15.50;99.90
52943;DHT22;38809;53.300;6.614;2023-06-22T04:09:03;15.60;99.90
52943;DHT22;38809;53.300;6.614;2023-06-22T04:11:29;15.60;99.90
52943;DHT22;38809;53.300;6.614;2023-06-22T04:13:54;15.70;99.90
52943;DHT22;38809;53.300;6.614;2023-06-22T04:16:21;15.80;99.90
52943;DHT22;38809;53.300;6.614;2023-06-22T04:18:46;16.10;99.90
52943;DHT22;38809;53.300;6.614;2023-06-22T04:21:12;15.60;99.90
52943;DHT22;38809;53.300;6.614;2023-06-22T04:23:38;15.80;99.90
52943;DHT22;38809;53.300;6.614;2023-06-22T04:26:04;15.90;99.90
52943;DHT22;38809;53.300;6.614;2023-06-22T04:28:29;15.60;99.90
52943;DHT22;38809;53.300;6.614;2023-06-22T04:31:03;15.90;99.90
52943;DHT22;38809;53.300;6.614;2023-06-22T04:33:28;15.90;99.90
52943;DHT22;38809;53.300;6.614;2023-06-22T04:35:54;16.00;99.90
52943;DHT22;38809;53.300;6.614;2023-06-22T04:38:22;16.00;99.90
52943;DHT22;38809;53.300;6.614;2023-06-22T04:40:48;15.90;99.90
52943;DHT22;38809;53.300;6.614;2023-06-22T04:43:14;16.00;99.90
52943;DHT22;38809;53.300;6.614;2023-06-22T04:45:39;16.00;99.90
52943;DHT22;38809;53.300;6.614;2023-06-22T04:48:05;16.10;99.90
52943;DHT22;38809;53.300;6.614;2023-06-22T04:50:31;16.20;99.90
52943;DHT22;38809;53.300;6.614;2023-06-22T04:52:56;16.30;99.90
52943;DHT22;38809;53.300;6.614;2023-06-22T04:55:23;16.80;99.90
52943;DHT22;38809;53.300;6.614;2023-06-22T04:57:51;17.10;99.90
52943;DHT22;38809;53.300;6.614;2023-06-22T05:00:20;17.10;99.90
52943;DHT22;38809;53.300;6.614;2023-06-22T05:02:48;16.90;99.90
52943;DHT22;38809;53.300;6.614;2023-06-22T05:05:14;16.80;99.90
52943;DHT22;38809;53.300;6.614;2023-06-22T05:07:41;16.70;99.90
52943;DHT22;38809;53.300;6.614;2023-06-22T05:10:08;16.80;99.90
52943;DHT22;38809;53.300;6.614;2023-06-22T05:12:34;17.10;99.90
52943;DHT22;38809;53.300;6.614;2023-06-22T05:15:00;17.30;99.90
52943;DHT22;38809;53.300;6.614;2023-06-22T05:17:26;17.40;99.90
52943;DHT22;38809;53.300;6.614;2023-06-22T05:19:52;17.70;99.90
52943;DHT22;38809;53.300;6.614;2023-06-22T05:22:18;18.00;99.90
52943;DHT22;38809;53.300;6.614;2023-06-22T05:24:44;18.10;99.90
52943;DHT22;38809;53.300;6.614;2023-06-22T05:27:09;18.80;99.90
52943;DHT22;38809;53.300;6.614;2023-06-22T05:29:38;19.40;99.90
52943;DHT22;38809;53.300;6.614;2023-06-22T05:32:04;19.30;99.90
52943;DHT22;38809;53.300;6.614;2023-06-22T05:34:30;18.90;99.90
52943;DHT22;38809;53.300;6.614;2023-06-22T05:36:56;18.80;99.90
52943;DHT22;38809;53.300;6.614;2023-06-22T05:39:24;19.40;99.90
52943;DHT22;38809;53.300;6.614;2023-06-22T05:41:50;18.80;99.90
52943;DHT22;38809;53.300;6.614;2023-06-22T05:44:16;18.90;99.90
52943;DHT22;38809;53.300;6.614;2023-06-22T05:46:42;18.60;99.90
52943;DHT22;38809;53.300;6.614;2023-06-22T05:49:12;19.00;99.90
52943;DHT22;38809;53.300;6.614;2023-06-22T05:51:38;19.00;99.90
52943;DHT22;38809;53.300;6.614;2023-06-22T05:54:03;18.80;99.90
52943;DHT22;38809;53.300;6.614;2023-06-22T05:56:29;19.00;99.90
52943;DHT22;38809;53.300;6.614;2023-06-22T05:58:55;19.00;99.90
52943;DHT22;38809;53.300;6.614;2023-06-22T06:01:20;18.90;99.90
52943;DHT22;38809;53.300;6.614;2023-06-22T06:03:46;18.70;99.90
52943;DHT22;38809;53.300;6.614;2023-06-22T06:06:12;19.00;99.90
52943;DHT22;38809;53.300;6.614;2023-06-22T06:08:38;19.00;99.90
52943;DHT22;38809;53.300;6.614;2023-06-22T06:11:03;19.10;99.90
52943;DHT22;38809;53.300;6.614;2023-06-22T06:13:29;19.10;99.90
52943;DHT22;38809;53.300;6.614;2023-06-22T06:15:55;19.20;99.90
52943;DHT22;38809;53.300;6.614;2023-06-22T06:18:21;19.20;99.90
52943;DHT22;38809;53.300;6.614;2023-06-22T06:20:46;19.40;99.90
52943;DHT22;38809;53.300;6.614;2023-06-22T06:23:12;19.40;99.90
52943;DHT22;38809;53.300;6.614;2023-06-22T06:25:37;19.20;99.90
52943;DHT22;38809;53.300;6.614;2023-06-22T06:28:03;19.50;99.90
52943;DHT22;38809;53.300;6.614;2023-06-22T06:30:29;19.50;99.90
52943;DHT22;38809;53.300;6.614;2023-06-22T06:32:54;19.50;99.90
52943;DHT22;38809;53.300;6.614;2023-06-22T06:35:21;19.40;99.90
52943;DHT22;38809;53.300;6.614;2023-06-22T06:37:47;19.60;99.90
52943;DHT22;38809;53.300;6.614;2023-06-22T06:40:14;19.90;99.90
52943;DHT22;38809;53.300;6.614;2023-06-22T06:42:41;19.80;99.90
52943;DHT22;38809;53.300;6.614;2023-06-22T06:45:14;20.10;99.90
52943;DHT22;38809;53.300;6.614;2023-06-22T06:47:40;20.10;99.90
52943;DHT22;38809;53.300;6.614;2023-06-22T06:50:06;20.40;99.90
52943;DHT22;38809;53.300;6.614;2023-06-22T06:52:31;20.30;99.90
52943;DHT22;38809;53.300;6.614;2023-06-22T06:54:58;20.40;99.90
52943;DHT22;38809;53.300;6.614;2023-06-22T06:57:23;20.40;99.90
52943;DHT22;38809;53.300;6.614;2023-06-22T06:59:49;20.50;99.90
52943;DHT22;38809;53.300;6.614;2023-06-22T07:02:15;20.80;99.90
52943;DHT22;38809;53.300;6.614;2023-06-22T07:04:40;20.90;99.90
52943;DHT22;38809;53.300;6.614;2023-06-22T07:07:06;20.70;99.90
52943;DHT22;38809;53.300;6.614;2023-06-22T07:09:32;20.50;99.90
52943;DHT22;38809;53.300;6.614;2023-06-22T07:11:58;20.80;99.90
52943;DHT22;38809;53.300;6.614;2023-06-22T07:14:23;21.10;99.90
52943;DHT22;38809;53.300;6.614;2023-06-22T07:16:49;21.50;99.90
52943;DHT22;38809;53.300;6.614;2023-06-22T07:19:15;21.50;99.90
52943;DHT22;38809;53.300;6.614;2023-06-22T07:21:40;21.60;99.90
52943;DHT22;38809;53.300;6.614;2023-06-22T07:24:06;21.70;99.90
52943;DHT22;38809;53.300;6.614;2023-06-22T07:26:32;21.80;99.90
52943;DHT22;38809;53.300;6.614;2023-06-22T07:28:57;22.00;99.90
52943;DHT22;38809;53.300;6.614;2023-06-22T07:31:24;22.10;99.90
52943;DHT22;38809;53.300;6.614;2023-06-22T07:33:49;21.80;99.90
52943;DHT22;38809;53.300;6.614;2023-06-22T07:36:16;22.00;99.90
52943;DHT22;38809;53.300;6.614;2023-06-22T07:38:41;22.20;99.90
52943;DHT22;38809;53.300;6.614;2023-06-22T07:41:07;22.30;99.90
52943;DHT22;38809;53.300;6.614;2023-06-22T07:43:32;22.60;99.90
52943;DHT22;38809;53.300;6.614;2023-06-22T07:45:59;22.60;99.90
52943;DHT22;38809;53.300;6.614;2023-06-22T07:48:25;23.10;99.90
52943;DHT22;38809;53.300;6.614;2023-06-22T07:50:51;22.50;99.90
52943;DHT22;38809;53.300;6.614;2023-06-22T07:53:18;22.80;99.90
52943;DHT22;38809;53.300;6.614;2023-06-22T07:55:43;22.80;99.90
52943;DHT22;38809;53.300;6.614;2023-06-22T07:58:09;22.80;99.90
52943;DHT22;38809;53.300;6.614;2023-06-22T08:00:34;22.50;99.90
52943;DHT22;38809;53.300;6.614;2023-06-22T08:03:00;22.60;99.90
52943;DHT22;38809;53.300;6.614;2023-06-22T08:05:28;22.90;99.90
52943;DHT22;38809;53.300;6.614;2023-06-22T08:07:54;22.90;99.90
52943;DHT22;38809;53.300;6.614;2023-06-22T08:10:21;23.30;99.90
52943;DHT22;38809;53.300;6.614;2023-06-22T08:12:46;22.90;99.90
52943;DHT22;38809;53.300;6.614;2023-06-22T08:15:12;23.20;99.90
52943;DHT22;38809;53.300;6.614;2023-06-22T08:17:38;22.90;99.90
52943;DHT22;38809;53.300;6.614;2023-06-22T08:20:04;22.80;99.90
52943;DHT22;38809;53.300;6.614;2023-06-22T08:22:35;23.00;99.90
52943;DHT22;38809;53.300;6.614;2023-06-22T08:25:02;22.80;99.90
52943;DHT22;38809;53.300;6.614;2023-06-22T08:27:29;23.00;99.90
52943;DHT22;38809;53.300;6.614;2023-06-22T08:29:57;22.90;99.90
52943;DHT22;38809;53.300;6.614;2023-06-22T08:32:24;23.20;99.90
52943;DHT22;38809;53.300;6.614;2023-06-22T08:34:52;23.60;99.90
52943;DHT22;38809;53.300;6.614;2023-06-22T08:37:18;23.40;99.90
52943;DHT22;38809;53.300;6.614;2023-06-22T08:39:43;23.80;99.90
52943;DHT22;38809;53.300;6.614;2023-06-22T08:42:09;23.60;99.90
52943;DHT22;38809;53.300;6.614;2023-06-22T08:44:34;23.90;99.90
52943;DHT22;38809;53.300;6.614;2023-06-22T08:47:00;23.60;99.90
52943;DHT22;38809;53.300;6.614;2023-06-22T08:49:26;24.00;99.90
52943;DHT22;38809;53.300;6.614;2023-06-22T08:51:51;24.00;99.90
52943;DHT22;38809;53.300;6.614;2023-06-22T08:54:19;23.80;99.90
52943;DHT22;38809;53.300;6.614;2023-06-22T08:56:44;23.80;99.90
52943;DHT22;38809;53.300;6.614;2023-06-22T08:59:10;24.30;99.90
52943;DHT22;38809;53.300;6.614;2023-06-22T09:01:36;24.30;99.90
52943;DHT22;38809;53.300;6.614;2023-06-22T09:04:01;26.50;99.90
52943;DHT22;38809;53.300;6.614;2023-06-22T09:06:27;24.20;99.90
52943;DHT22;38809;53.300;6.614;2023-06-22T09:08:52;24.40;99.90
52943;DHT22;38809;53.300;6.614;2023-06-22T09:11:18;24.20;99.90
52943;DHT22;38809;53.300;6.614;2023-06-22T09:13:43;24.50;99.90
52943;DHT22;38809;53.300;6.614;2023-06-22T09:16:09;24.90;99.90
52943;DHT22;38809;53.300;6.614;2023-06-22T09:18:35;24.00;99.90
52943;DHT22;38809;53.300;6.614;2023-06-22T09:21:01;24.60;99.90
52943;DHT22;38809;53.300;6.614;2023-06-22T09:23:27;24.40;99.90
52943;DHT22;38809;53.300;6.614;2023-06-22T09:25:52;24.20;99.90
52943;DHT22;38809;53.300;6.614;2023-06-22T09:28:18;24.40;99.90
52943;DHT22;38809;53.300;6.614;2023-06-22T09:30:43;24.50;99.90
52943;DHT22;38809;53.300;6.614;2023-06-22T09:33:12;24.50;99.90
52943;DHT22;38809;53.300;6.614;2023-06-22T09:35:38;24.80;99.90
52943;DHT22;38809;53.300;6.614;2023-06-22T09:38:04;24.60;99.90
52943;DHT22;38809;53.300;6.614;2023-06-22T09:40:29;24.70;99.90
52943;DHT22;38809;53.300;6.614;2023-06-22T09:42:55;24.30;99.90
52943;DHT22;38809;53.300;6.614;2023-06-22T09:45:20;24.60;99.90
52943;DHT22;38809;53.300;6.614;2023-06-22T09:47:46;24.80;99.90
52943;DHT22;38809;53.300;6.614;2023-06-22T09:50:11;24.70;99.90
52943;DHT22;38809;53.300;6.614;2023-06-22T09:52:37;24.80;99.90
52943;DHT22;38809;53.300;6.614;2023-06-22T09:55:03;24.90;99.90
52943;DHT22;38809;53.300;6.614;2023-06-22T09:57:29;24.90;99.90
52943;DHT22;38809;53.300;6.614;2023-06-22T09:59:54;24.70;99.90
52943;DHT22;38809;53.300;6.614;2023-06-22T10:02:20;24.70;99.90
52943;DHT22;38809;53.300;6.614;2023-06-22T10:04:47;25.10;99.90
52943;DHT22;38809;53.300;6.614;2023-06-22T10:07:13;24.90;99.90
52943;DHT22;38809;53.300;6.614;2023-06-22T10:09:38;25.00;99.90
52943;DHT22;38809;53.300;6.614;2023-06-22T10:12:04;25.40;99.90
52943;DHT22;38809;53.300;6.614;2023-06-22T10:14:30;25.00;99.90
52943;DHT22;38809;53.300;6.614;2023-06-22T10:16:55;25.10;99.90
52943;DHT22;38809;53.300;6.614;2023-06-22T10:19:21;25.30;99.90
52943;DHT22;38809;53.300;6.614;2023-06-22T10:21:46;25.40;99.90
52943;DHT22;38809;53.300;6.614;2023-06-22T10:24:12;25.60;99.90
52943;DHT22;38809;53.300;6.614;2023-06-22T10:26:38;25.80;99.90
52943;DHT22;38809;53.300;6.614;2023-06-22T10:29:03;26.00;99.90
52943;DHT22;38809;53.300;6.614;2023-06-22T10:31:29;25.80;99.90
52943;DHT22;38809;53.300;6.614;2023-06-22T10:33:55;25.60;99.90
52943;DHT22;38809;53.300;6.614;2023-06-22T10:36:21;25.90;99.90
52943;DHT22;38809;53.300;6.614;2023-06-22T10:38:46;25.90;99.90
52943;DHT22;38809;53.300;6.614;2023-06-22T10:41:13;25.30;99.90
52943;DHT22;38809;53.300;6.614;2023-06-22T10:43:38;25.10;99.90
52943;DHT22;38809;53.300;6.614;2023-06-22T10:46:04;25.30;99.90
52943;DHT22;38809;53.300;6.614;2023-06-22T10:48:29;25.00;99.90
52943;DHT22;38809;53.300;6.614;2023-06-22T10:50:55;25.30;99.90
52943;DHT22;38809;53.300;6.614;2023-06-22T10:53:21;25.10;99.90
52943;DHT22;38809;53.300;6.614;2023-06-22T10:55:47;25.00;99.90
52943;DHT22;38809;53.300;6.614;2023-06-22T10:58:12;25.20;99.90
52943;DHT22;38809;53.300;6.614;2023-06-22T11:00:38;24.70;99.90
52943;DHT22;38809;53.300;6.614;2023-06-22T11:03:03;24.30;99.90
52943;DHT22;38809;53.300;6.614;2023-06-22T11:05:29;24.30;99.90
52943;DHT22;38809;53.300;6.614;2023-06-22T11:07:55;24.60;99.90
52943;DHT22;38809;53.300;6.614;2023-06-22T11:10:20;25.20;99.90
52943;DHT22;38809;53.300;6.614;2023-06-22T11:12:46;25.20;99.90
52943;DHT22;38809;53.300;6.614;2023-06-22T11:15:11;24.60;99.90
52943;DHT22;38809;53.300;6.614;2023-06-22T11:17:37;24.60;99.90
52943;DHT22;38809;53.300;6.614;2023-06-22T11:20:02;25.30;99.90
52943;DHT22;38809;53.300;6.614;2023-06-22T11:22:35;25.00;99.90
52943;DHT22;38809;53.300;6.614;2023-06-22T11:25:00;24.50;99.90
52943;DHT22;38809;53.300;6.614;2023-06-22T11:27:26;24.80;99.90
52943;DHT22;38809;53.300;6.614;2023-06-22T11:29:51;24.90;99.90
52943;DHT22;38809;53.300;6.614;2023-06-22T11:32:18;25.10;99.90
52943;DHT22;38809;53.300;6.614;2023-06-22T11:34:44;24.70;99.90
52943;DHT22;38809;53.300;6.614;2023-06-22T11:37:10;25.10;99.90
52943;DHT22;38809;53.300;6.614;2023-06-22T11:39:35;25.10;99.90
52943;DHT22;38809;53.300;6.614;2023-06-22T11:42:01;24.90;99.90
52943;DHT22;38809;53.300;6.614;2023-06-22T11:44:26;25.20;99.90
52943;DHT22;38809;53.300;6.614;2023-06-22T11:46:52;24.70;99.90
52943;DHT22;38809;53.300;6.614;2023-06-22T11:49:17;25.00;99.90
52943;DHT22;38809;53.300;6.614;2023-06-22T11:51:43;24.70;99.90
52943;DHT22;38809;53.300;6.614;2023-06-22T11:54:08;24.90;99.90
52943;DHT22;38809;53.300;6.614;2023-06-22T11:56:34;25.00;99.90
52943;DHT22;38809;53.300;6.614;2023-06-22T11:58:59;25.20;99.90
52943;DHT22;38809;53.300;6.614;2023-06-22T12:01:25;25.20;99.90
52943;DHT22;38809;53.300;6.614;2023-06-22T12:03:51;24.20;99.90
52943;DHT22;38809;53.300;6.614;2023-06-22T12:06:17;24.90;99.90
52943;DHT22;38809;53.300;6.614;2023-06-22T12:08:42;24.90;99.90
52943;DHT22;38809;53.300;6.614;2023-06-22T12:11:08;24.80;99.90
52943;DHT22;38809;53.300;6.614;2023-06-22T12:13:33;24.90;99.90
52943;DHT22;38809;53.300;6.614;2023-06-22T12:15:59;25.20;99.90
52943;DHT22;38809;53.300;6.614;2023-06-22T12:18:24;25.00;99.90
52943;DHT22;38809;53.300;6.614;2023-06-22T12:20:50;24.30;99.90
52943;DHT22;38809;53.300;6.614;2023-06-22T12:23:16;24.70;99.90
52943;DHT22;38809;53.300;6.614;2023-06-22T12:25:41;24.60;99.90
52943;DHT22;38809;53.300;6.614;2023-06-22T12:28:07;24.80;99.90
52943;DHT22;38809;53.300;6.614;2023-06-22T12:30:33;24.90;99.90
52943;DHT22;38809;53.300;6.614;2023-06-22T12:32:58;24.60;99.90
52943;DHT22;38809;53.300;6.614;2023-06-22T12:35:24;24.60;99.90
52943;DHT22;38809;53.300;6.614;2023-06-22T12:37:49;24.30;99.90
52943;DHT22;38809;53.300;6.614;2023-06-22T12:40:15;24.20;99.90
52943;DHT22;38809;53.300;6.614;2023-06-22T12:42:40;24.20;99.90
52943;DHT22;38809;53.300;6.614;2023-06-22T12:45:07;24.10;99.90
52943;DHT22;38809;53.300;6.614;2023-06-22T12:47:33;23.90;99.90
52943;DHT22;38809;53.300;6.614;2023-06-22T12:49:59;24.00;99.90
52943;DHT22;38809;53.300;6.614;2023-06-22T12:52:24;24.20;99.90
52943;DHT22;38809;53.300;6.614;2023-06-22T12:54:50;24.10;99.90
52943;DHT22;38809;53.300;6.614;2023-06-22T12:57:16;24.10;99.90
52943;DHT22;38809;53.300;6.614;2023-06-22T12:59:43;23.80;99.90
52943;DHT22;38809;53.300;6.614;2023-06-22T13:02:08;23.70;99.90
52943;DHT22;38809;53.300;6.614;2023-06-22T13:04:34;23.60;99.90
52943;DHT22;38809;53.300;6.614;2023-06-22T13:07:00;23.90;99.90
52943;DHT22;38809;53.300;6.614;2023-06-22T13:09:25;23.80;99.90
52943;DHT22;38809;53.300;6.614;2023-06-22T13:11:51;24.00;99.90
52943;DHT22;38809;53.300;6.614;2023-06-22T13:14:18;24.00;99.90
52943;DHT22;38809;53.300;6.614;2023-06-22T13:16:43;24.00;99.90
52943;DHT22;38809;53.300;6.614;2023-06-22T13:19:09;24.00;99.90
52943;DHT22;38809;53.300;6.614;2023-06-22T13:21:34;23.90;99.90
52943;DHT22;38809;53.300;6.614;2023-06-22T13:24:00;23.80;99.90
52943;DHT22;38809;53.300;6.614;2023-06-22T13:26:26;23.50;99.90
52943;DHT22;38809;53.300;6.614;2023-06-22T13:28:54;23.60;99.90
52943;DHT22;38809;53.300;6.614;2023-06-22T13:31:19;24.00;99.90
52943;DHT22;38809;53.300;6.614;2023-06-22T13:33:45;23.70;99.90
52943;DHT22;38809;53.300;6.614;2023-06-22T13:36:13;23.50;99.90
52943;DHT22;38809;53.300;6.614;2023-06-22T13:38:38;23.40;99.90
52943;DHT22;38809;53.300;6.614;2023-06-22T13:41:04;23.20;99.90
52943;DHT22;38809;53.300;6.614;2023-06-22T13:43:30;23.50;99.90
52943;DHT22;38809;53.300;6.614;2023-06-22T13:45:56;23.10;99.90
52943;DHT22;38809;53.300;6.614;2023-06-22T13:48:21;23.40;99.90
52943;DHT22;38809;53.300;6.614;2023-06-22T13:50:48;23.40;99.90
52943;DHT22;38809;53.300;6.614;2023-06-22T13:53:14;23.00;99.90
52943;DHT22;38809;53.300;6.614;2023-06-22T13:55:40;23.10;99.90
52943;DHT22;38809;53.300;6.614;2023-06-22T13:58:06;23.00;99.90
52943;DHT22;38809;53.300;6.614;2023-06-22T14:00:32;23.00;99.90
52943;DHT22;38809;53.300;6.614;2023-06-22T14:02:57;23.20;99.90
52943;DHT22;38809;53.300;6.614;2023-06-22T14:05:23;23.00;99.90
52943;DHT22;38809;53.300;6.614;2023-06-22T14:07:48;22.90;99.90
52943;DHT22;38809;53.300;6.614;2023-06-22T14:10:14;22.80;99.90
52943;DHT22;38809;53.300;6.614;2023-06-22T14:12:40;22.90;99.90
52943;DHT22;38809;53.300;6.614;2023-06-22T14:15:05;23.00;99.90
52943;DHT22;38809;53.300;6.614;2023-06-22T14:17:31;22.80;99.90
52943;DHT22;38809;53.300;6.614;2023-06-22T14:19:56;22.70;99.90
52943;DHT22;38809;53.300;6.614;2023-06-22T14:22:22;22.60;99.90
52943;DHT22;38809;53.300;6.614;2023-06-22T14:24:48;22.30;99.90
52943;DHT22;38809;53.300;6.614;2023-06-22T14:27:14;22.50;99.90
52943;DHT22;38809;53.300;6.614;2023-06-22T14:29:40;22.40;99.90
52943;DHT22;38809;53.300;6.614;2023-06-22T14:32:06;22.80;99.90
52943;DHT22;38809;53.300;6.614;2023-06-22T14:34:32;22.50;99.90
52943;DHT22;38809;53.300;6.614;2023-06-22T14:36:57;22.70;99.90
52943;DHT22;38809;53.300;6.614;2023-06-22T14:39:23;22.60;99.90
52943;DHT22;38809;53.300;6.614;2023-06-22T14:41:48;22.40;99.90
52943;DHT22;38809;53.300;6.614;2023-06-22T14:44:14;22.40;99.90
52943;DHT22;38809;53.300;6.614;2023-06-22T14:46:40;22.40;99.90
52943;DHT22;38809;53.300;6.614;2023-06-22T14:49:05;22.70;99.90
52943;DHT22;38809;53.300;6.614;2023-06-22T14:51:31;22.70;99.90
52943;DHT22;38809;53.300;6.614;2023-06-22T14:53:56;22.60;99.90
52943;DHT22;38809;53.300;6.614;2023-06-22T14:56:22;22.80;99.90
52943;DHT22;38809;53.300;6.614;2023-06-22T14:58:48;22.50;99.90
52943;DHT22;38809;53.300;6.614;2023-06-22T15:01:14;22.50;99.90
52943;DHT22;38809;53.300;6.614;2023-06-22T15:03:40;22.20;99.90
52943;DHT22;38809;53.300;6.614;2023-06-22T15:06:05;21.70;99.90
52943;DHT22;38809;53.300;6.614;2023-06-22T15:08:31;22.20;99.90
52943;DHT22;38809;53.300;6.614;2023-06-22T15:11:00;22.20;99.90
52943;DHT22;38809;53.300;6.614;2023-06-22T15:13:30;22.10;99.90
52943;DHT22;38809;53.300;6.614;2023-06-22T15:15:57;21.90;99.90
52943;DHT22;38809;53.300;6.614;2023-06-22T15:18:23;22.10;99.90
52943;DHT22;38809;53.300;6.614;2023-06-22T15:20:48;21.90;99.90
52943;DHT22;38809;53.300;6.614;2023-06-22T15:23:14;21.90;99.90
52943;DHT22;38809;53.300;6.614;2023-06-22T15:25:40;22.10;99.90
52943;DHT22;38809;53.300;6.614;2023-06-22T15:28:05;22.10;99.90
52943;DHT22;38809;53.300;6.614;2023-06-22T15:30:31;22.20;99.90
52943;DHT22;38809;53.300;6.614;2023-06-22T15:32:57;22.00;99.90